Lane, SD (57358)

1:26 PM CDT on October 21, 2019 (GMT -0500)
Junction 281/34 | | Change Station
Active Advisory: Wind Advisory

Elev 1385 ft 44.07 °N, 98.43 °W | Updated 11 minutes ago

Overcast
Overcast
45.4 °F
Feels Like 37 °F
N
22
Wind Variable Wind from East
Gusts 33.0 mph

Today
High -- | Low -- °F
--% Chance of Precip.
Yesterday
High -- | Low -- °F
Precip. -- in
Pressure 29.48 in
Visibility 5.0 miles
Clouds Mostly Cloudy 1300 ft
Overcast 2200 ft
Windchill 37 °F
Dew Point 42 °F
Humidity 91%
Rainfall 0.01 in
Snow Depth Not available.
7:55 AM 6:40 PM
Waning Gibbous, 47% visible
SPECI KHON 211813Z AUTO 35023G36KT 5SM -RA BR BKN013 OVC022 07/06 A2948 RMK AO2 PK WND 34036/1813 P0000 T00720056
Pressure 29.48 in
Visibility 5.0 miles
Clouds Mostly Cloudy 1300 ft
Overcast 2200 ft
Windchill 37 °F
Dew Point 42 °F
Humidity 91%
Rainfall 0.01 in
Snow Depth Not available.
7:55 AM 6:40 PM
Waning Gibbous, 47% visible
SPECI KHON 211813Z AUTO 35023G36KT 5SM -RA BR BKN013 OVC022 07/06 A2948 RMK AO2 PK WND 34036/1813 P0000 T00720056

Get Your Daily Forecast Email!

Thanks for signing up!

Be on the lookout for a verification email in your inbox.

You'll start receiving severe weather alerts in your inbox..

×

10-Day Weather Forecast

Almanac

Astronomy

Oct. 21, 2019 Rise Set
Actual Time
Civil Twilight
Nautical Twilight
Astronomical Twilight
Moon
Length of Visible Light
Length of Day
Tomorrow will be .
, % of the Moon is Illuminated

Today's Extremes

State Highs State Lows

Community

WunderPhotos

Category 6

Welcome to Category 6. This is the collective home for Weather Underground's featured writeups by Dr. Jeff Masters (right), Bob Henson (left), Chris Burt, and other regular contributors.

Nearby

Air Quality

  Air Quality AQ Index Pollutant
Not available.

Snow Depth

Station Depth Elevation

Earthquake Activity

City Distance Mag. Time & Date
Minimum magnitude displayed is 2.5.

Coastal Water Temperatures

Place Temperature

Stations

Nearby Weather Stations

Station Location Temp. Windchill Dew Point Humidity Wind Precip. Elev Updated Type
                   

Watches & Warnings

Wind Advisory
Issued: 11:40 AM CDT Oct. 21, 2019 – National Weather Service

... Wind Advisory now in effect until 4 am CDT Tuesday...

* what... northwest winds 20 to 30 mph with gusts up to 50 mph
expected.

* Where... Charles Mix, Brule, Douglas, Jerauld, Gregory and
Aurora counties.

* When... until 4 am CDT Tuesday.

* Impacts... gusty winds could blow around unsecured objects.
Tree limbs could be blown down and a few power outages may
result.

Precautionary/preparedness actions...

Use extra caution when driving, especially if operating a high
profile vehicle. Secure outdoor objects.